createdAt,value
2017-06-21T00:01:31.376Z,24.30
2017-06-21T00:03:59.608Z,24.20
2017-06-21T00:06:27.036Z,24.20
2017-06-21T00:08:54.463Z,24.20
2017-06-21T00:11:22.676Z,24.20
2017-06-21T00:13:50.120Z,24.20
2017-06-21T00:16:17.612Z,24.10
2017-06-21T00:18:45.020Z,24.00
2017-06-21T00:21:13.230Z,24.00
2017-06-21T00:23:40.656Z,24.00
2017-06-21T00:26:08.087Z,24.00
2017-06-21T00:28:35.516Z,24.00
2017-06-21T00:31:02.980Z,23.90
2017-06-21T00:33:30.413Z,23.90
2017-06-21T00:35:57.840Z,23.90
2017-06-21T00:38:25.280Z,23.80
2017-06-21T00:40:53.472Z,23.80
2017-06-21T00:43:20.904Z,23.80
2017-06-21T00:45:48.333Z,23.80
2017-06-21T00:48:15.770Z,23.80
2017-06-21T00:50:43.200Z,23.70
2017-06-21T00:53:10.636Z,23.70
2017-06-21T00:55:38.827Z,23.70
2017-06-21T00:58:06.260Z,23.70
2017-06-21T01:00:33.688Z,23.70
2017-06-21T01:03:01.132Z,23.60
2017-06-21T01:05:28.565Z,23.60
2017-06-21T01:07:55.991Z,23.60
2017-06-21T01:10:24.196Z,23.50
2017-06-21T01:12:51.620Z,23.50
2017-06-21T01:15:19.829Z,23.50
2017-06-21T01:17:47.256Z,23.50
2017-06-21T01:20:15.452Z,23.50
2017-06-21T01:22:42.875Z,23.40
2017-06-21T01:25:10.325Z,23.40
2017-06-21T01:27:37.758Z,23.40
2017-06-21T01:30:05.197Z,23.40
2017-06-21T01:32:32.624Z,23.30
2017-06-21T01:35:00.060Z,23.30
2017-06-21T01:37:27.484Z,23.30
2017-06-21T01:39:54.926Z,23.30
2017-06-21T01:42:22.375Z,23.20
2017-06-21T01:44:49.800Z,23.20
2017-06-21T01:47:17.229Z,23.10
2017-06-21T01:49:44.659Z,23.10
2017-06-21T01:52:12.100Z,23.00
2017-06-21T01:54:39.524Z,23.10
2017-06-21T01:57:07.720Z,23.00
2017-06-21T01:59:35.153Z,23.00
2017-06-21T02:02:02.602Z,23.00
2017-06-21T02:04:30.028Z,23.00
2017-06-21T02:06:57.529Z,22.90
2017-06-21T02:09:25.728Z,22.90
2017-06-21T02:11:53.165Z,22.90
2017-06-21T02:14:20.603Z,22.80
2017-06-21T02:16:48.046Z,22.80
2017-06-21T02:19:15.496Z,22.80
2017-06-21T02:21:42.933Z,22.80
2017-06-21T02:24:10.372Z,22.70
2017-06-21T02:26:37.804Z,22.70
2017-06-21T02:29:06.009Z,22.60
2017-06-21T02:31:33.441Z,22.60
2017-06-21T02:34:00.872Z,22.60
2017-06-21T02:36:28.309Z,22.60
2017-06-21T02:38:55.801Z,22.50
2017-06-21T02:41:24.032Z,22.50
2017-06-21T02:43:53.480Z,22.40
2017-06-21T02:46:21.681Z,22.40
2017-06-21T02:48:49.117Z,22.40
2017-06-21T02:51:16.557Z,22.40
2017-06-21T02:53:43.990Z,22.30
2017-06-21T02:56:11.428Z,22.20
2017-06-21T02:58:38.863Z,22.30
2017-06-21T03:01:06.297Z,22.20
2017-06-21T03:03:34.503Z,22.20
2017-06-21T03:06:01.936Z,22.20
2017-06-21T03:08:29.370Z,22.20
2017-06-21T03:10:56.813Z,22.20
2017-06-21T03:13:24.252Z,22.10
2017-06-21T03:15:51.693Z,22.00
2017-06-21T03:18:21.152Z,22.10
2017-06-21T03:20:49.353Z,22.00
2017-06-21T03:23:16.789Z,22.00
2017-06-21T03:25:44.229Z,22.00
2017-06-21T03:28:11.651Z,22.00
2017-06-21T03:30:39.090Z,22.00
2017-06-21T03:33:06.529Z,22.00
2017-06-21T03:35:33.957Z,22.00
2017-06-21T03:38:01.392Z,22.00
2017-06-21T03:40:30.825Z,22.00
2017-06-21T03:42:59.024Z,21.90
2017-06-21T03:45:26.453Z,21.90
2017-06-21T03:47:54.656Z,21.90
2017-06-21T03:50:22.085Z,21.90
2017-06-21T03:52:52.332Z,21.90
2017-06-21T03:55:19.761Z,21.90
2017-06-21T03:57:47.953Z,21.90
2017-06-21T04:00:15.389Z,21.80
2017-06-21T04:02:42.824Z,21.80
2017-06-21T04:05:10.262Z,21.80
2017-06-21T04:07:37.680Z,21.80
2017-06-21T04:10:05.116Z,21.80
2017-06-21T04:12:33.308Z,21.70
2017-06-21T04:15:00.749Z,21.70
2017-06-21T04:17:28.944Z,21.70
2017-06-21T04:19:56.380Z,21.70
2017-06-21T04:22:24.590Z,21.80
2017-06-21T04:24:52.012Z,21.70
2017-06-21T04:27:20.216Z,21.80
2017-06-21T04:29:47.648Z,21.80
2017-06-21T04:32:15.172Z,21.80
2017-06-21T04:34:42.608Z,21.80
2017-06-21T04:37:10.079Z,21.80
2017-06-21T04:39:37.538Z,21.90
2017-06-21T04:42:04.980Z,21.90
2017-06-21T04:44:32.436Z,22.00
2017-06-21T04:46:59.878Z,22.00
2017-06-21T04:49:27.305Z,22.00
2017-06-21T04:51:55.504Z,22.10
2017-06-21T04:54:22.936Z,22.10
2017-06-21T04:56:51.141Z,22.10
2017-06-21T04:59:18.569Z,22.10
2017-06-21T05:01:46.768Z,22.30
2017-06-21T05:04:14.199Z,22.20
2017-06-21T05:06:42.396Z,22.20
2017-06-21T05:09:09.833Z,22.20
2017-06-21T05:11:38.029Z,22.40
2017-06-21T05:14:05.465Z,22.40
2017-06-21T05:16:33.657Z,22.50
2017-06-21T05:19:01.104Z,22.50
2017-06-21T05:21:28.534Z,22.60
2017-06-21T05:23:55.968Z,22.70
2017-06-21T05:26:23.401Z,22.90
2017-06-21T05:28:50.836Z,22.80
2017-06-21T05:31:18.265Z,22.90
2017-06-21T05:33:46.488Z,23.20
2017-06-21T05:36:13.922Z,23.20
2017-06-21T05:38:41.347Z,23.30
2017-06-21T05:41:08.784Z,23.20
2017-06-21T05:43:36.247Z,23.30
2017-06-21T05:46:03.683Z,23.50
2017-06-21T05:48:31.112Z,23.70
2017-06-21T05:50:58.545Z,23.70
2017-06-21T05:53:26.745Z,23.80
2017-06-21T05:55:54.181Z,23.80
2017-06-21T05:58:21.611Z,24.00
2017-06-21T06:00:49.044Z,24.00
2017-06-21T06:03:16.485Z,24.10
2017-06-21T06:05:43.913Z,24.10
2017-06-21T06:08:11.348Z,24.00
2017-06-21T06:10:39.552Z,24.20
2017-06-21T06:13:06.981Z,24.20
2017-06-21T06:15:35.180Z,24.30
2017-06-21T06:18:02.620Z,24.30
2017-06-21T06:20:30.047Z,24.50
2017-06-21T06:22:57.483Z,24.60
2017-06-21T06:25:24.912Z,24.70
2017-06-21T06:27:52.345Z,24.90
2017-06-21T06:30:19.776Z,24.80
2017-06-21T06:32:47.213Z,24.90
2017-06-21T06:35:14.644Z,25.00
2017-06-21T06:37:42.069Z,25.10
2017-06-21T06:40:10.266Z,25.30
2017-06-21T06:42:37.705Z,25.30
2017-06-21T06:45:05.133Z,25.40
2017-06-21T06:47:32.573Z,25.50
2017-06-21T06:49:59.996Z,25.60
2017-06-21T06:52:27.472Z,25.70
2017-06-21T06:54:54.885Z,25.90
2017-06-21T06:57:22.313Z,26.10
2017-06-21T06:59:49.751Z,26.30
2017-06-21T07:02:17.183Z,26.60
2017-06-21T07:04:44.612Z,26.50
2017-06-21T07:07:12.037Z,26.50
2017-06-21T07:09:39.473Z,26.80
2017-06-21T07:12:06.900Z,27.00
2017-06-21T07:14:34.340Z,26.90
2017-06-21T07:17:01.765Z,26.60
2017-06-21T07:19:29.196Z,26.90
2017-06-21T07:21:56.624Z,27.10
2017-06-21T07:24:24.067Z,27.10
2017-06-21T07:26:52.265Z,27.30
2017-06-21T07:29:19.698Z,27.30
2017-06-21T07:31:47.133Z,27.30
2017-06-21T07:34:14.562Z,27.00
2017-06-21T07:36:42.003Z,27.20
2017-06-21T07:39:09.425Z,27.30
2017-06-21T07:41:36.864Z,27.70
2017-06-21T07:44:04.284Z,28.10
2017-06-21T07:46:31.725Z,28.10
2017-06-21T07:48:59.153Z,28.10
2017-06-21T07:51:26.589Z,28.30
2017-06-21T07:53:54.013Z,28.10
2017-06-21T07:56:21.455Z,28.30
2017-06-21T07:58:48.884Z,28.30
2017-06-21T08:01:16.341Z,28.60
2017-06-21T08:03:43.768Z,28.80
2017-06-21T08:06:11.196Z,28.80
2017-06-21T08:08:38.644Z,28.90
2017-06-21T08:11:06.077Z,28.50
2017-06-21T08:13:33.513Z,28.60
2017-06-21T08:16:00.945Z,28.80
2017-06-21T08:18:28.381Z,28.60
2017-06-21T08:20:55.808Z,28.80
2017-06-21T08:23:23.241Z,28.80
2017-06-21T08:25:51.433Z,29.60
2017-06-21T08:28:18.892Z,29.50
2017-06-21T08:30:46.322Z,29.60
2017-06-21T08:33:14.521Z,29.70
2017-06-21T08:35:41.953Z,29.70
2017-06-21T08:38:09.381Z,30.00
2017-06-21T08:40:36.812Z,30.30
2017-06-21T08:43:04.244Z,30.40
2017-06-21T08:45:31.681Z,30.60
2017-06-21T08:47:59.873Z,30.80
2017-06-21T08:50:27.317Z,30.80
2017-06-21T08:52:55.509Z,30.60
2017-06-21T08:55:23.973Z,30.60
2017-06-21T08:57:51.452Z,31.00
2017-06-21T09:00:18.884Z,31.00
2017-06-21T09:02:47.076Z,31.60
2017-06-21T09:05:14.522Z,31.60
2017-06-21T09:07:42.708Z,32.00
2017-06-21T09:10:10.137Z,31.90
2017-06-21T09:12:38.341Z,32.40
2017-06-21T09:15:05.769Z,32.30
2017-06-21T09:17:33.972Z,32.70
2017-06-21T09:20:01.397Z,32.60
2017-06-21T09:22:29.601Z,32.60
2017-06-21T09:24:57.032Z,32.60
2017-06-21T09:27:25.234Z,32.80
2017-06-21T09:29:52.660Z,32.80
2017-06-21T09:32:20.860Z,32.60
2017-06-21T09:34:48.286Z,32.60
2017-06-21T09:37:15.724Z,32.30
2017-06-21T09:39:43.156Z,32.40
2017-06-21T09:42:10.607Z,32.50
2017-06-21T09:44:38.037Z,32.30
2017-06-21T09:47:05.477Z,32.50
2017-06-21T09:49:33.668Z,32.60
2017-06-21T09:52:01.101Z,32.60
2017-06-21T09:54:29.305Z,33.30
2017-06-21T09:56:56.733Z,33.20
2017-06-21T09:59:24.944Z,32.70
2017-06-21T10:01:52.369Z,32.70
2017-06-21T10:04:20.569Z,33.20
2017-06-21T10:06:48.001Z,33.20
2017-06-21T10:09:16.202Z,32.90
2017-06-21T10:11:43.629Z,32.80
2017-06-21T10:14:11.833Z,33.50
2017-06-21T10:16:39.261Z,33.50
2017-06-21T10:19:07.464Z,33.60
2017-06-21T10:21:34.912Z,33.60
2017-06-21T10:24:03.093Z,34.00
2017-06-21T10:26:30.521Z,34.00
2017-06-21T10:28:58.718Z,33.70
2017-06-21T10:31:26.154Z,33.70
2017-06-21T10:33:54.349Z,33.90
2017-06-21T10:36:21.784Z,33.90
2017-06-21T10:38:49.990Z,34.40
2017-06-21T10:41:17.462Z,34.40
2017-06-21T10:43:44.888Z,34.40
2017-06-21T10:46:12.320Z,33.50
2017-06-21T10:48:39.745Z,33.20
2017-06-21T10:51:07.186Z,33.40
2017-06-21T10:53:34.623Z,33.30
2017-06-21T10:56:02.052Z,33.40
2017-06-21T10:58:30.244Z,33.90
2017-06-21T11:00:57.685Z,33.90
2017-06-21T11:03:25.889Z,34.00
2017-06-21T11:05:53.308Z,34.00
2017-06-21T11:08:21.511Z,34.20
2017-06-21T11:10:48.938Z,34.20
2017-06-21T11:13:16.374Z,34.30
2017-06-21T11:15:43.822Z,34.30
2017-06-21T11:18:11.264Z,33.90
2017-06-21T11:20:38.695Z,33.90
2017-06-21T11:23:06.134Z,34.30
2017-06-21T11:25:34.329Z,34.40
2017-06-21T11:28:01.772Z,34.40
2017-06-21T11:30:29.214Z,33.90
2017-06-21T11:32:56.670Z,34.20
2017-06-21T11:35:24.874Z,34.70
2017-06-21T11:37:52.304Z,34.60
2017-06-21T11:40:20.497Z,34.70
2017-06-21T11:42:47.924Z,34.60
2017-06-21T11:45:15.370Z,34.30
2017-06-21T11:47:42.806Z,34.10
2017-06-21T11:50:10.240Z,34.10
2017-06-21T11:52:37.670Z,34.30
2017-06-21T11:55:05.877Z,33.90
2017-06-21T11:57:33.308Z,33.90
2017-06-21T12:00:00.749Z,33.60
2017-06-21T12:02:28.946Z,33.40
2017-06-21T12:04:56.377Z,33.30
2017-06-21T12:07:24.573Z,33.30
2017-06-21T12:09:52.024Z,33.20
2017-06-21T12:12:20.200Z,33.30
2017-06-21T12:14:47.642Z,33.30
2017-06-21T12:17:15.833Z,33.10
2017-06-21T12:19:43.259Z,33.10
2017-06-21T12:22:10.695Z,33.30
2017-06-21T12:24:38.130Z,33.20
2017-06-21T12:27:05.561Z,33.30
2017-06-21T12:29:32.989Z,33.20
2017-06-21T12:32:00.417Z,33.30
2017-06-21T12:34:27.843Z,33.40
2017-06-21T12:36:55.281Z,33.40
2017-06-21T12:39:22.717Z,33.40
2017-06-21T12:41:50.152Z,33.20
2017-06-21T12:44:17.582Z,33.20
2017-06-21T12:46:45.017Z,33.10
2017-06-21T12:49:12.443Z,32.90
2017-06-21T12:51:40.657Z,32.90
2017-06-21T12:54:08.088Z,32.80
2017-06-21T12:56:36.412Z,32.90
2017-06-21T12:59:03.828Z,32.90
2017-06-21T13:01:31.266Z,32.80
2017-06-21T13:03:59.468Z,32.60
2017-06-21T13:06:26.897Z,32.60
2017-06-21T13:08:55.102Z,32.60
2017-06-21T13:11:22.524Z,32.60
2017-06-21T13:13:49.960Z,32.60
2017-06-21T13:16:17.391Z,32.40
2017-06-21T13:18:44.824Z,32.60
2017-06-21T13:21:12.251Z,32.60
2017-06-21T13:23:40.476Z,32.50
2017-06-21T13:26:07.989Z,32.50
2017-06-21T13:28:36.181Z,32.40
2017-06-21T13:31:03.611Z,32.40
2017-06-21T13:33:31.813Z,32.60
2017-06-21T13:35:59.249Z,32.60
2017-06-21T13:38:26.676Z,32.60
2017-06-21T13:40:54.116Z,32.70
2017-06-21T13:43:21.549Z,32.70
2017-06-21T13:45:48.980Z,32.50
2017-06-21T13:48:17.180Z,32.40
2017-06-21T13:50:44.608Z,32.30
2017-06-21T13:53:12.801Z,32.60
2017-06-21T13:55:40.341Z,32.50
2017-06-21T13:58:08.541Z,32.60
2017-06-21T14:00:35.981Z,32.50
2017-06-21T14:03:04.172Z,32.60
2017-06-21T14:05:31.601Z,32.60
2017-06-21T14:07:59.805Z,32.60
2017-06-21T14:10:27.233Z,32.60
2017-06-21T14:12:55.440Z,32.40
2017-06-21T14:15:22.865Z,32.40
2017-06-21T14:17:51.085Z,32.30
2017-06-21T14:20:18.497Z,32.30
2017-06-21T14:22:46.700Z,32.50
2017-06-21T14:25:14.301Z,32.50
2017-06-21T14:27:41.740Z,32.60
2017-06-21T14:30:09.248Z,32.50
2017-06-21T14:32:37.469Z,32.60
2017-06-21T14:35:04.900Z,32.60
2017-06-21T14:37:32.345Z,32.70
2017-06-21T14:39:59.769Z,32.70
2017-06-21T14:42:27.196Z,32.70
2017-06-21T14:44:54.629Z,32.70
2017-06-21T14:47:22.057Z,32.70
2017-06-21T14:49:49.488Z,32.40
2017-06-21T14:52:16.925Z,32.50
2017-06-21T14:54:44.356Z,32.60
2017-06-21T14:57:11.786Z,32.60
2017-06-21T14:59:39.241Z,32.60
2017-06-21T15:02:07.443Z,32.40
2017-06-21T15:04:34.974Z,32.40
2017-06-21T15:07:03.177Z,32.30
2017-06-21T15:09:30.616Z,32.30
2017-06-21T15:11:58.821Z,32.30
2017-06-21T15:14:26.265Z,32.30
2017-06-21T15:16:53.696Z,32.20
2017-06-21T15:19:21.963Z,32.10
2017-06-21T15:21:49.396Z,32.10
2017-06-21T15:24:16.825Z,32.00
2017-06-21T15:26:44.261Z,31.90
2017-06-21T15:29:11.690Z,31.80
2017-06-21T15:31:39.897Z,31.60
2017-06-21T15:34:07.321Z,31.60
2017-06-21T15:36:35.524Z,31.80
2017-06-21T15:39:02.960Z,31.80
2017-06-21T15:41:31.232Z,31.60
2017-06-21T15:43:59.453Z,31.50
2017-06-21T15:46:26.908Z,31.50
2017-06-21T15:48:54.349Z,31.50
2017-06-21T15:51:21.777Z,31.50
2017-06-21T15:53:49.980Z,31.40
2017-06-21T15:56:17.409Z,31.40
2017-06-21T15:58:45.617Z,31.30
2017-06-21T16:01:13.037Z,31.30
2017-06-21T16:03:41.242Z,31.30
2017-06-21T16:06:08.670Z,31.30
2017-06-21T16:08:36.878Z,31.50
2017-06-21T16:11:04.304Z,31.40
2017-06-21T16:13:32.508Z,31.40
2017-06-21T16:15:59.939Z,31.40
2017-06-21T16:18:28.136Z,31.30
2017-06-21T16:20:55.565Z,31.30
2017-06-21T16:23:23.765Z,31.30
2017-06-21T16:25:51.188Z,31.30
2017-06-21T16:28:19.411Z,31.40
2017-06-21T16:30:46.840Z,31.40
2017-06-21T16:33:14.264Z,31.30
2017-06-21T16:35:41.700Z,31.30
2017-06-21T16:38:09.549Z,31.20
2017-06-21T16:40:36.966Z,31.20
2017-06-21T16:43:05.156Z,31.20
2017-06-21T16:45:32.589Z,31.20
2017-06-21T16:48:00.789Z,31.30
2017-06-21T16:50:28.220Z,31.20
2017-06-21T16:52:56.420Z,31.20
2017-06-21T16:55:23.852Z,31.20
2017-06-21T16:57:52.053Z,31.20
2017-06-21T17:00:19.545Z,31.20
2017-06-21T17:02:46.969Z,31.20
2017-06-21T17:05:14.392Z,31.20
2017-06-21T17:07:42.597Z,31.20
2017-06-21T17:10:10.025Z,31.20
2017-06-21T17:12:38.229Z,31.20
2017-06-21T17:15:05.657Z,31.10
2017-06-21T17:17:33.861Z,31.10
2017-06-21T17:20:01.294Z,31.10
2017-06-21T17:22:29.494Z,31.00
2017-06-21T17:24:56.944Z,31.00
2017-06-21T17:27:24.377Z,31.00
2017-06-21T17:29:52.572Z,30.90
2017-06-21T17:32:20.021Z,30.90
2017-06-21T17:34:47.453Z,31.00
2017-06-21T17:37:14.912Z,30.80
2017-06-21T17:39:42.369Z,30.70
2017-06-21T17:42:09.915Z,30.70
2017-06-21T17:44:37.341Z,30.70
2017-06-21T17:47:04.777Z,30.60
2017-06-21T17:49:32.215Z,30.60
2017-06-21T17:52:00.408Z,30.50
2017-06-21T17:54:29.906Z,30.50
2017-06-21T17:56:57.337Z,30.50
2017-06-21T17:59:24.792Z,30.30
2017-06-21T18:01:52.992Z,30.30
2017-06-21T18:04:20.417Z,30.30
2017-06-21T18:06:47.853Z,30.30
2017-06-21T18:09:15.289Z,30.30
2017-06-21T18:11:42.732Z,30.30
2017-06-21T18:14:10.156Z,30.20
2017-06-21T18:16:38.360Z,30.10
2017-06-21T18:19:05.790Z,30.00
2017-06-21T18:21:33.989Z,30.00
2017-06-21T18:24:01.423Z,30.00
2017-06-21T18:26:29.634Z,30.00
2017-06-21T18:28:57.070Z,29.90
2017-06-21T18:31:24.505Z,29.90
2017-06-21T18:33:52.705Z,29.80
2017-06-21T18:36:20.999Z,29.70
2017-06-21T18:38:48.409Z,29.80
2017-06-21T18:41:16.600Z,29.70
2017-06-21T18:43:44.040Z,29.70
2017-06-21T18:46:12.245Z,29.60
2017-06-21T18:48:39.690Z,29.50
2017-06-21T18:51:07.116Z,29.50
2017-06-21T18:53:34.657Z,29.40
2017-06-21T18:56:02.190Z,29.30
2017-06-21T18:58:29.651Z,29.30
2017-06-21T19:00:57.098Z,29.20
2017-06-21T19:03:24.605Z,29.10
2017-06-21T19:05:52.013Z,29.00
2017-06-21T19:08:19.449Z,28.90
2017-06-21T19:10:46.877Z,28.80
2017-06-21T19:13:14.304Z,28.70
2017-06-21T19:15:41.745Z,28.70
2017-06-21T19:18:09.169Z,28.50
2017-06-21T19:20:36.615Z,28.50
2017-06-21T19:23:04.049Z,28.50
2017-06-21T19:25:31.486Z,28.40
2017-06-21T19:27:58.925Z,28.30
2017-06-21T19:30:26.357Z,28.20
2017-06-21T19:32:53.784Z,28.10
2017-06-21T19:35:21.224Z,28.00
2017-06-21T19:37:48.656Z,27.90
2017-06-21T19:40:17.088Z,27.80
2017-06-21T19:42:44.520Z,27.70
2017-06-21T19:45:11.956Z,27.60
2017-06-21T19:47:39.388Z,27.50
2017-06-21T19:50:06.822Z,27.30
2017-06-21T19:52:35.021Z,27.10
2017-06-21T19:55:02.444Z,27.10
2017-06-21T19:57:29.887Z,27.10
2017-06-21T19:59:57.318Z,27.00
2017-06-21T20:02:25.844Z,27.00
2017-06-21T20:04:53.256Z,27.00
2017-06-21T20:07:20.695Z,27.00
2017-06-21T20:09:48.132Z,27.00
2017-06-21T20:12:15.573Z,27.00
2017-06-21T20:14:43.783Z,26.80
2017-06-21T20:17:11.213Z,26.80
2017-06-21T20:19:38.645Z,26.80
2017-06-21T20:22:06.085Z,26.70
2017-06-21T20:24:33.527Z,26.60
2017-06-21T20:27:00.948Z,26.50
2017-06-21T20:29:28.385Z,26.30
2017-06-21T20:31:55.814Z,26.30
2017-06-21T20:34:23.253Z,26.10
2017-06-21T20:36:50.691Z,26.00
2017-06-21T20:39:18.224Z,26.00
2017-06-21T20:41:45.632Z,25.80
2017-06-21T20:44:13.063Z,25.60
2017-06-21T20:46:40.497Z,25.60
2017-06-21T20:49:08.041Z,25.50
2017-06-21T20:51:35.466Z,25.50
2017-06-21T20:54:02.913Z,25.40
2017-06-21T20:56:30.350Z,25.40
2017-06-21T20:58:57.776Z,25.40
2017-06-21T21:01:25.213Z,25.30
2017-06-21T21:03:52.644Z,25.20
2017-06-21T21:06:20.129Z,24.90
2017-06-21T21:08:48.365Z,24.90
2017-06-21T21:11:15.865Z,24.80
2017-06-21T21:13:44.056Z,24.70
2017-06-21T21:16:11.484Z,24.70
2017-06-21T21:18:38.921Z,24.70
2017-06-21T21:21:06.409Z,24.70
2017-06-21T21:23:34.609Z,24.50
2017-06-21T21:26:02.041Z,24.40
2017-06-21T21:28:29.478Z,24.30
2017-06-21T21:30:56.914Z,24.20
2017-06-21T21:33:24.351Z,24.20
2017-06-21T21:35:51.777Z,24.10
2017-06-21T21:38:20.001Z,24.00
2017-06-21T21:40:47.464Z,23.80
2017-06-21T21:43:14.896Z,23.70
2017-06-21T21:45:42.400Z,23.70
2017-06-21T21:48:09.841Z,23.70
2017-06-21T21:50:37.267Z,23.70
2017-06-21T21:53:04.724Z,23.70
2017-06-21T21:55:32.153Z,23.70
2017-06-21T21:57:59.589Z,23.70
2017-06-21T22:00:27.829Z,23.40
2017-06-21T22:02:55.263Z,23.40
2017-06-21T22:05:22.695Z,23.40
2017-06-21T22:07:50.121Z,23.30
2017-06-21T22:10:17.564Z,23.30
2017-06-21T22:12:44.995Z,23.10
2017-06-21T22:15:12.436Z,23.00
2017-06-21T22:17:39.868Z,22.70
2017-06-21T22:20:08.073Z,22.80
2017-06-21T22:22:35.510Z,22.70
2017-06-21T22:25:03.709Z,22.80
2017-06-21T22:27:31.137Z,22.80
2017-06-21T22:29:58.576Z,22.60
2017-06-21T22:32:26.772Z,22.50
2017-06-21T22:34:54.200Z,22.40
2017-06-21T22:37:21.641Z,22.50
2017-06-21T22:39:49.081Z,22.40
2017-06-21T22:42:16.522Z,22.40
2017-06-21T22:44:43.945Z,22.40
2017-06-21T22:47:11.389Z,22.50
2017-06-21T22:49:39.589Z,22.40
2017-06-21T22:52:07.029Z,22.40
2017-06-21T22:54:35.229Z,22.30
2017-06-21T22:57:02.664Z,22.30
2017-06-21T22:59:30.101Z,22.30
2017-06-21T23:01:57.533Z,22.30
2017-06-21T23:04:24.970Z,22.30
2017-06-21T23:06:52.396Z,22.20
2017-06-21T23:09:19.845Z,22.20
2017-06-21T23:11:48.046Z,22.10
2017-06-21T23:14:15.485Z,22.10
2017-06-21T23:16:42.917Z,22.10
2017-06-21T23:19:10.356Z,22.10
2017-06-21T23:21:37.788Z,22.10
2017-06-21T23:24:05.237Z,22.00
2017-06-21T23:26:32.665Z,22.00
2017-06-21T23:29:00.872Z,22.00
2017-06-21T23:31:28.309Z,21.90
2017-06-21T23:33:55.737Z,22.00
2017-06-21T23:36:23.941Z,21.90
2017-06-21T23:38:51.378Z,21.90
2017-06-21T23:41:19.577Z,21.70
2017-06-21T23:43:47.017Z,21.70
2017-06-21T23:46:14.448Z,21.60
2017-06-21T23:48:41.876Z,21.50
2017-06-21T23:51:09.317Z,21.40
2017-06-21T23:53:36.748Z,21.40
2017-06-21T23:56:04.181Z,21.40
2017-06-21T23:58:31.612Z,21.40
